CPX362 Details

Departure: Portland International Airport (KPDX)
Arrival: Seattle-Tacoma International Airport (KSEA)
Route: COUGA KRIEG HAWKZ7


Current Weather Information
KPDX 181453Z 13010KT 10SM CLR 15/01 A3017 RMK AO2 SLP215 T01500006 58002
KSEA 181453Z 02012KT 10SM CLR 09/01 A3020 RMK AO2 SLP233 T00890011 58002